createdAt,value
2023-05-22T00:01:56.609Z,13.10
2023-05-22T00:05:01.497Z,13.20
2023-05-22T00:08:12.333Z,13.20
2023-05-22T00:11:16.847Z,13.20
2023-05-22T00:14:21.077Z,13.30
2023-05-22T00:17:26.475Z,13.30
2023-05-22T00:20:30.888Z,13.40
2023-05-22T00:23:35.433Z,13.40
2023-05-22T00:26:39.985Z,13.40
2023-05-22T00:29:44.118Z,13.40
2023-05-22T00:32:48.341Z,13.40
2023-05-22T00:35:53.732Z,13.40
2023-05-22T00:38:58.179Z,13.40
2023-05-22T00:42:03.253Z,13.40
2023-05-22T00:45:09.752Z,13.40
2023-05-22T00:48:15.606Z,13.40
2023-05-22T00:51:24.164Z,13.40
2023-05-22T00:54:30.592Z,13.30
2023-05-22T00:57:36.430Z,13.30
2023-05-22T01:00:42.173Z,13.30
2023-05-22T01:03:47.698Z,13.30
2023-05-22T01:06:54.068Z,13.30
2023-05-22T01:09:58.604Z,13.30
2023-05-22T01:13:08.909Z,13.20
2023-05-22T01:16:23.877Z,13.20
2023-05-22T01:20:02.063Z,13.20
2023-05-22T01:23:41.354Z,13.20
2023-05-22T01:27:28.653Z,13.20
2023-05-22T01:30:55.543Z,13.20
2023-05-22T01:34:02.494Z,13.20
2023-05-22T01:37:08.172Z,13.10
2023-05-22T01:40:13.734Z,13.20
2023-05-22T01:43:19.194Z,13.10
2023-05-22T01:46:28.221Z,13.10
2023-05-22T01:49:34.590Z,13.10
2023-05-22T01:52:41.806Z,13.10
2023-05-22T01:55:55.866Z,13.10
2023-05-22T01:59:07.870Z,13.10
2023-05-22T02:02:15.976Z,13.10
2023-05-22T02:05:23.256Z,13.00
2023-05-22T02:08:28.973Z,13.00
2023-05-22T02:11:36.141Z,13.00
2023-05-22T02:14:43.121Z,13.00
2023-05-22T02:17:49.690Z,13.00
2023-05-22T02:20:54.422Z,12.90
2023-05-22T02:23:58.737Z,12.90
2023-05-22T02:27:04.176Z,12.80
2023-05-22T02:30:09.458Z,12.80
2023-05-22T02:33:17.858Z,12.80
2023-05-22T02:36:22.947Z,12.80
2023-05-22T02:39:27.548Z,12.70
2023-05-22T02:42:32.126Z,12.80
2023-05-22T02:45:37.761Z,12.70
2023-05-22T02:48:42.181Z,12.70
2023-05-22T02:51:47.779Z,12.70
2023-05-22T02:54:52.401Z,12.60
2023-05-22T02:57:57.674Z,12.60
2023-05-22T03:01:03.554Z,12.60
2023-05-22T03:04:08.079Z,12.60
2023-05-22T03:07:12.327Z,12.60
2023-05-22T03:10:17.425Z,12.60
2023-05-22T03:13:21.661Z,12.70
2023-05-22T03:16:26.761Z,12.70
2023-05-22T03:19:31.415Z,12.70
2023-05-22T03:22:36.131Z,12.70
2023-05-22T03:25:40.722Z,12.70
2023-05-22T03:28:45.468Z,12.80
2023-05-22T03:31:50.274Z,12.80
2023-05-22T03:34:54.346Z,12.90
2023-05-22T03:37:58.842Z,12.90
2023-05-22T03:41:03.212Z,12.90
2023-05-22T03:44:07.728Z,13.00
2023-05-22T03:47:12.103Z,13.00
2023-05-22T03:50:16.524Z,13.00
2023-05-22T03:53:21.209Z,13.00
2023-05-22T03:56:26.560Z,13.10
2023-05-22T03:59:31.098Z,13.10
2023-05-22T04:02:38.898Z,13.20
2023-05-22T04:05:43.603Z,13.20
2023-05-22T04:08:49.249Z,13.30
2023-05-22T04:11:53.534Z,13.30
2023-05-22T04:14:57.715Z,13.30
2023-05-22T04:18:02.162Z,13.40
2023-05-22T04:21:09.534Z,13.40
2023-05-22T04:24:14.260Z,13.50
2023-05-22T04:27:22.030Z,13.50
2023-05-22T04:30:26.904Z,13.60
2023-05-22T04:33:34.270Z,13.60
2023-05-22T04:36:38.896Z,13.70
2023-05-22T04:39:43.356Z,13.80
2023-05-22T04:42:47.508Z,13.90
2023-05-22T04:45:52.176Z,13.90
2023-05-22T04:49:02.078Z,13.90
2023-05-22T04:52:07.297Z,14.10
2023-05-22T04:55:12.157Z,14.00
2023-05-22T04:58:16.974Z,14.00
2023-05-22T05:01:21.615Z,14.00
2023-05-22T05:04:26.291Z,14.10
2023-05-22T05:07:30.626Z,14.20
2023-05-22T05:10:35.521Z,14.30
2023-05-22T05:13:40.002Z,14.30
2023-05-22T05:16:45.021Z,14.40
2023-05-22T05:19:50.462Z,14.50
2023-05-22T05:22:54.875Z,14.70
2023-05-22T05:25:59.420Z,14.80
2023-05-22T05:29:03.902Z,14.90
2023-05-22T05:32:25.475Z,15.10
2023-05-22T05:35:45.175Z,15.10
2023-05-22T05:38:51.111Z,15.30
2023-05-22T05:41:55.444Z,15.50
2023-05-22T05:44:59.574Z,15.60
2023-05-22T05:48:06.551Z,15.80
2023-05-22T05:51:13.056Z,15.90
2023-05-22T05:54:20.176Z,16.30
2023-05-22T05:57:26.520Z,16.40
2023-05-22T06:00:32.735Z,16.60
2023-05-22T06:03:38.451Z,16.90
2023-05-22T06:06:48.364Z,16.90
2023-05-22T06:09:52.748Z,17.00
2023-05-22T06:13:17.115Z,17.20
2023-05-22T06:16:21.637Z,17.30
2023-05-22T06:19:26.101Z,17.40
2023-05-22T06:22:30.797Z,17.50
2023-05-22T06:25:37.355Z,17.80
2023-05-22T06:28:41.876Z,18.00
2023-05-22T06:31:46.489Z,18.20
2023-05-22T06:34:54.104Z,18.60
2023-05-22T06:37:59.261Z,18.60
2023-05-22T06:41:05.381Z,18.60
2023-05-22T06:44:10.290Z,18.90
2023-05-22T06:47:16.576Z,19.50
2023-05-22T06:50:21.414Z,19.60
2023-05-22T06:53:25.690Z,20.10
2023-05-22T06:56:30.342Z,20.50
2023-05-22T06:59:38.839Z,20.50
2023-05-22T07:02:43.108Z,20.60
2023-05-22T07:06:02.254Z,20.70
2023-05-22T07:09:08.648Z,20.70
2023-05-22T07:12:13.580Z,20.90
2023-05-22T07:15:18.087Z,21.30
2023-05-22T07:18:28.018Z,22.00
2023-05-22T07:21:35.100Z,21.40
2023-05-22T07:24:41.697Z,21.80
2023-05-22T07:27:46.107Z,21.70
2023-05-22T07:30:51.254Z,21.40
2023-05-22T07:33:56.022Z,21.90
2023-05-22T07:37:07.046Z,22.00
2023-05-22T07:40:12.110Z,22.40
2023-05-22T07:43:16.754Z,22.70
2023-05-22T07:46:21.301Z,22.10
2023-05-22T07:49:33.497Z,22.30
2023-05-22T07:52:39.479Z,22.50
2023-05-22T07:55:44.535Z,22.60
2023-05-22T07:58:49.138Z,23.20
2023-05-22T08:01:58.420Z,23.70
2023-05-22T08:05:04.546Z,24.20
2023-05-22T08:08:10.438Z,23.70
2023-05-22T08:11:14.731Z,23.70
2023-05-22T08:14:19.073Z,23.70
2023-05-22T08:17:23.331Z,23.90
2023-05-22T08:20:27.824Z,23.40
2023-05-22T08:23:32.690Z,23.70
2023-05-22T08:26:37.492Z,23.80
2023-05-22T08:29:42.212Z,23.80
2023-05-22T08:32:46.587Z,24.10
2023-05-22T08:35:51.214Z,23.90
2023-05-22T08:38:55.993Z,24.80
2023-05-22T08:42:02.444Z,24.70
2023-05-22T08:45:07.962Z,24.70
2023-05-22T08:48:13.803Z,24.20
2023-05-22T08:51:19.866Z,25.20
2023-05-22T08:54:28.064Z,24.80
2023-05-22T08:57:33.305Z,25.00
2023-05-22T09:00:38.036Z,25.10
2023-05-22T09:03:42.712Z,25.60
2023-05-22T09:06:47.540Z,25.20
2023-05-22T09:09:52.471Z,25.00
2023-05-22T09:13:01.284Z,25.20
2023-05-22T09:16:11.509Z,24.90
2023-05-22T09:19:16.354Z,25.30
2023-05-22T09:22:23.003Z,25.60
2023-05-22T09:25:28.764Z,26.00
2023-05-22T09:28:35.305Z,26.10
2023-05-22T09:31:44.723Z,25.70
2023-05-22T09:34:51.414Z,25.60
2023-05-22T09:37:57.381Z,26.00
2023-05-22T09:41:02.033Z,26.60
2023-05-22T09:44:14.175Z,26.20
2023-05-22T09:47:19.098Z,25.60
2023-05-22T09:50:23.207Z,26.20
2023-05-22T09:53:31.421Z,25.70
2023-05-22T09:56:41.979Z,25.50
2023-05-22T09:59:54.339Z,25.60
2023-05-22T10:03:07.648Z,26.00
2023-05-22T10:06:14.130Z,25.70
2023-05-22T10:09:21.411Z,25.40
2023-05-22T10:12:26.788Z,25.90
2023-05-22T10:15:32.233Z,25.50
2023-05-22T10:18:38.341Z,26.40
2023-05-22T10:21:43.473Z,26.00
2023-05-22T10:24:48.631Z,26.50
2023-05-22T10:27:54.723Z,26.20
2023-05-22T10:31:05.358Z,26.60
2023-05-22T10:34:49.121Z,26.20
2023-05-22T10:38:00.015Z,26.10
2023-05-22T10:41:04.848Z,26.10
2023-05-22T10:44:09.504Z,25.90
2023-05-22T10:47:14.595Z,27.20
2023-05-22T10:50:19.267Z,26.40
2023-05-22T10:53:28.155Z,26.60
2023-05-22T10:56:37.447Z,26.70
2023-05-22T10:59:42.801Z,26.20
2023-05-22T11:02:47.522Z,26.20
2023-05-22T11:05:57.467Z,26.40
2023-05-22T11:09:32.349Z,26.80
2023-05-22T11:12:37.370Z,26.80
2023-05-22T11:15:46.743Z,27.30
2023-05-22T11:19:22.697Z,27.20
2023-05-22T11:22:32.428Z,27.80
2023-05-22T11:25:38.565Z,27.60
2023-05-22T11:28:44.119Z,26.80
2023-05-22T11:31:48.753Z,27.50
2023-05-22T11:34:54.701Z,27.10
2023-05-22T11:37:59.536Z,27.30
2023-05-22T11:41:04.228Z,26.80
2023-05-22T11:44:08.978Z,26.70
2023-05-22T11:47:14.166Z,27.20
2023-05-22T11:53:26.667Z,27.80
2023-05-22T11:56:31.986Z,27.30
2023-05-22T11:59:36.671Z,27.00
2023-05-22T12:02:47.683Z,27.40
2023-05-22T12:05:52.648Z,27.20
2023-05-22T12:08:57.077Z,26.90
2023-05-22T12:12:01.361Z,26.90
2023-05-22T12:15:07.267Z,26.90
2023-05-22T12:18:11.931Z,26.90
2023-05-22T12:21:19.299Z,26.40
2023-05-22T12:24:24.180Z,25.90
2023-05-22T12:27:33.198Z,27.10
2023-05-22T12:30:42.260Z,27.00
2023-05-22T12:33:46.954Z,27.20
2023-05-22T12:36:51.501Z,26.90
2023-05-22T12:40:00.939Z,27.10
2023-05-22T12:43:05.379Z,26.90
2023-05-22T12:46:09.521Z,26.60
2023-05-22T12:49:13.936Z,26.40
2023-05-22T12:52:18.692Z,26.30
2023-05-22T12:55:23.484Z,26.80
2023-05-22T12:58:27.844Z,26.20
2023-05-22T13:01:32.338Z,26.90
2023-05-22T13:04:36.682Z,26.90
2023-05-22T13:07:41.288Z,26.60
2023-05-22T13:10:45.445Z,26.20
2023-05-22T13:13:49.816Z,26.60
2023-05-22T13:16:54.248Z,26.70
2023-05-22T13:19:58.856Z,26.90
2023-05-22T13:23:03.386Z,26.40
2023-05-22T13:26:08.163Z,26.40
2023-05-22T13:29:12.708Z,26.50
2023-05-22T13:32:20.078Z,26.40
2023-05-22T13:35:24.689Z,26.40
2023-05-22T13:38:28.809Z,26.90
2023-05-22T13:41:33.061Z,27.10
2023-05-22T13:44:37.682Z,26.80
2023-05-22T13:47:42.161Z,26.90
2023-05-22T13:50:46.614Z,26.10
2023-05-22T13:53:51.046Z,26.40
2023-05-22T13:56:57.612Z,25.80
2023-05-22T14:00:02.583Z,26.50
2023-05-22T14:03:08.912Z,26.60
2023-05-22T14:06:13.332Z,26.40
2023-05-22T14:09:18.362Z,26.20
2023-05-22T14:12:22.920Z,26.00
2023-05-22T14:15:27.330Z,26.20
2023-05-22T14:18:32.049Z,25.50
2023-05-22T14:21:36.942Z,25.80
2023-05-22T14:24:41.496Z,26.10
2023-05-22T14:27:45.893Z,27.40
2023-05-22T14:30:50.302Z,26.20
2023-05-22T14:33:55.483Z,26.40
2023-05-22T14:37:00.052Z,26.20
2023-05-22T14:40:05.158Z,26.00
2023-05-22T14:43:09.561Z,26.60
2023-05-22T14:46:14.072Z,26.30
2023-05-22T14:49:18.864Z,26.10
2023-05-22T14:52:23.526Z,26.10
2023-05-22T14:55:28.166Z,25.20
2023-05-22T14:58:32.699Z,25.30
2023-05-22T15:01:38.651Z,25.30
2023-05-22T15:04:44.695Z,25.10
2023-05-22T15:07:51.216Z,25.20
2023-05-22T15:10:55.987Z,25.20
2023-05-22T15:14:00.830Z,25.00
2023-05-22T15:17:05.665Z,24.80
2023-05-22T15:20:10.802Z,24.60
2023-05-22T15:23:16.364Z,24.90
2023-05-22T15:26:21.500Z,24.40
2023-05-22T15:29:26.122Z,25.60
2023-05-22T15:32:32.757Z,25.50
2023-05-22T15:35:37.199Z,25.50
2023-05-22T15:38:42.517Z,25.30
2023-05-22T15:41:54.597Z,25.30
2023-05-22T15:45:07.996Z,25.10
2023-05-22T15:48:12.834Z,25.90
2023-05-22T15:51:17.549Z,25.20
2023-05-22T15:54:21.662Z,25.80
2023-05-22T15:57:28.310Z,25.00
2023-05-22T16:00:38.449Z,25.30
2023-05-22T16:03:42.843Z,25.30
2023-05-22T16:06:47.106Z,25.40
2023-05-22T16:09:51.482Z,25.70
2023-05-22T16:12:56.268Z,25.10
2023-05-22T16:16:03.248Z,26.00
2023-05-22T16:19:07.891Z,25.60
2023-05-22T16:22:12.284Z,24.90
2023-05-22T16:25:17.498Z,25.30
2023-05-22T16:28:22.104Z,25.60
2023-05-22T16:31:26.704Z,25.10
2023-05-22T16:34:33.744Z,24.50
2023-05-22T16:37:38.409Z,24.20
2023-05-22T16:40:42.962Z,23.20
2023-05-22T16:43:47.681Z,22.70
2023-05-22T16:46:52.171Z,21.90
2023-05-22T16:49:56.801Z,21.60
2023-05-22T16:53:01.106Z,21.40
2023-05-22T16:56:05.663Z,21.20
2023-05-22T16:59:10.379Z,21.10
2023-05-22T17:02:14.714Z,20.90
2023-05-22T17:05:19.986Z,20.90
2023-05-22T17:08:28.097Z,20.70
2023-05-22T17:11:32.375Z,20.60
2023-05-22T17:14:36.455Z,20.50
2023-05-22T17:17:41.076Z,20.50
2023-05-22T17:20:50.156Z,20.40
2023-05-22T17:23:54.732Z,20.30
2023-05-22T17:26:59.988Z,20.20
2023-05-22T17:30:06.831Z,20.10
2023-05-22T17:33:12.259Z,20.00
2023-05-22T17:36:16.448Z,19.90
2023-05-22T17:39:20.623Z,19.80
2023-05-22T17:42:25.116Z,19.70
2023-05-22T17:45:30.425Z,19.60
2023-05-22T17:48:35.453Z,19.50
2023-05-22T17:51:39.873Z,19.40
2023-05-22T17:54:44.209Z,19.30
2023-05-22T17:57:48.510Z,19.20
2023-05-22T18:00:52.995Z,19.10
2023-05-22T18:03:58.488Z,18.90
2023-05-22T18:07:03.798Z,18.80
2023-05-22T18:10:08.873Z,18.70
2023-05-22T18:13:13.517Z,18.70
2023-05-22T18:16:19.426Z,18.60
2023-05-22T18:19:23.843Z,18.60
2023-05-22T18:22:28.189Z,18.50
2023-05-22T18:25:32.696Z,18.30
2023-05-22T18:28:36.955Z,18.20
2023-05-22T18:31:41.676Z,18.20
2023-05-22T18:34:46.463Z,18.10
2023-05-22T18:37:51.418Z,18.00
2023-05-22T18:40:56.353Z,17.90
2023-05-22T18:44:01.373Z,17.90
2023-05-22T18:47:06.511Z,17.80
2023-05-22T18:50:12.102Z,17.70
2023-05-22T18:53:16.603Z,17.60
2023-05-22T18:56:21.230Z,17.50
2023-05-22T18:59:26.012Z,17.40
2023-05-22T19:02:30.737Z,17.30
2023-05-22T19:05:35.179Z,17.20
2023-05-22T19:08:40.371Z,17.10
2023-05-22T19:11:44.852Z,17.00
2023-05-22T19:14:49.616Z,16.90
2023-05-22T19:17:54.077Z,16.80
2023-05-22T19:20:58.909Z,16.70
2023-05-22T19:24:03.475Z,16.70
2023-05-22T19:27:07.633Z,16.50
2023-05-22T19:30:15.040Z,16.40
2023-05-22T19:33:21.251Z,16.30
2023-05-22T19:36:25.941Z,16.10
2023-05-22T19:39:30.917Z,16.00
2023-05-22T19:42:38.672Z,16.00
2023-05-22T19:45:43.558Z,15.90
2023-05-22T19:48:48.212Z,15.80
2023-05-22T19:51:54.121Z,15.70
2023-05-22T19:54:59.877Z,15.60
2023-05-22T19:58:04.112Z,15.50
2023-05-22T20:01:08.649Z,15.40
2023-05-22T20:04:14.051Z,15.30
2023-05-22T20:07:18.437Z,15.30
2023-05-22T20:10:23.803Z,15.10
2023-05-22T20:13:28.694Z,15.00
2023-05-22T20:16:33.416Z,15.00
2023-05-22T20:19:38.018Z,14.90
2023-05-22T20:22:42.677Z,14.80
2023-05-22T20:25:47.150Z,14.70
2023-05-22T20:28:51.344Z,14.60
2023-05-22T20:31:55.908Z,14.50
2023-05-22T20:35:00.556Z,14.50
2023-05-22T20:38:08.693Z,14.40
2023-05-22T20:41:14.083Z,14.30
2023-05-22T20:44:19.184Z,14.20
2023-05-22T20:47:23.765Z,14.10
2023-05-22T20:50:27.924Z,14.00
2023-05-22T20:53:32.386Z,13.90
2023-05-22T20:56:37.708Z,13.70
2023-05-22T20:59:41.930Z,13.70
2023-05-22T21:02:46.486Z,13.50
2023-05-22T21:05:50.629Z,13.40
2023-05-22T21:09:01.442Z,13.30
2023-05-22T21:12:07.387Z,13.20
2023-05-22T21:15:12.199Z,13.10
2023-05-22T21:18:16.873Z,13.10
2023-05-22T21:21:21.641Z,13.00
2023-05-22T21:24:26.241Z,12.90
2023-05-22T21:27:30.814Z,12.80
2023-05-22T21:30:35.004Z,12.60
2023-05-22T21:33:39.284Z,12.60
2023-05-22T21:36:43.949Z,12.60
2023-05-22T21:39:48.421Z,12.60
2023-05-22T21:42:53.404Z,12.60
2023-05-22T21:45:57.844Z,12.60
2023-05-22T21:49:03.305Z,12.50
2023-05-22T21:52:07.862Z,12.40
2023-05-22T21:55:12.537Z,12.30
2023-05-22T21:58:17.050Z,12.30
2023-05-22T22:01:21.536Z,12.30
2023-05-22T22:04:25.851Z,12.20
2023-05-22T22:07:30.164Z,12.20
2023-05-22T22:10:35.290Z,12.20
2023-05-22T22:13:39.629Z,12.10
2023-05-22T22:16:44.891Z,12.00
2023-05-22T22:19:49.741Z,11.90
2023-05-22T22:22:54.311Z,11.90
2023-05-22T22:25:58.865Z,11.80
2023-05-22T22:29:03.380Z,11.80
2023-05-22T22:32:07.945Z,11.70
2023-05-22T22:35:12.260Z,11.60
2023-05-22T22:38:16.496Z,11.60
2023-05-22T22:41:20.751Z,11.50
2023-05-22T22:44:25.357Z,11.40
2023-05-22T22:47:29.646Z,11.40
2023-05-22T22:50:33.978Z,11.40
2023-05-22T22:53:38.358Z,11.40
2023-05-22T22:56:42.589Z,11.40
2023-05-22T22:59:47.121Z,11.30
2023-05-22T23:02:51.727Z,11.40
2023-05-22T23:05:56.254Z,11.40
2023-05-22T23:09:02.752Z,11.40
2023-05-22T23:12:07.578Z,11.30
2023-05-22T23:15:14.000Z,11.30
2023-05-22T23:18:18.741Z,11.30
2023-05-22T23:21:23.277Z,11.30
2023-05-22T23:24:27.568Z,11.40
2023-05-22T23:27:31.771Z,11.40
2023-05-22T23:30:36.177Z,11.40
2023-05-22T23:33:40.989Z,11.40
2023-05-22T23:36:45.714Z,11.40
2023-05-22T23:39:50.089Z,11.40
2023-05-22T23:42:54.515Z,11.30
2023-05-22T23:45:58.607Z,11.40
2023-05-22T23:49:02.979Z,11.30
2023-05-22T23:52:07.985Z,11.30
2023-05-22T23:55:12.910Z,11.30
2023-05-22T23:58:17.378Z,11.20
